createdAt,value
2022-08-07T00:01:44.370Z,96.80
2022-08-07T00:04:05.938Z,96.80
2022-08-07T00:06:33.902Z,97.10
2022-08-07T00:09:16.396Z,97.10
2022-08-07T00:11:56.069Z,97.10
2022-08-07T00:14:29.986Z,97.40
2022-08-07T00:17:02.528Z,97.50
2022-08-07T00:19:59.605Z,97.70
2022-08-07T00:22:24.441Z,97.80
2022-08-07T00:25:11.077Z,97.60
2022-08-07T00:27:53.345Z,97.80
2022-08-07T00:30:27.451Z,98.00
2022-08-07T00:33:02.093Z,98.20
2022-08-07T00:35:30.427Z,98.30
2022-08-07T00:38:00.651Z,98.30
2022-08-07T00:40:36.584Z,98.40
2022-08-07T00:44:01.535Z,98.60
2022-08-07T00:45:59.753Z,98.80
2022-08-07T00:48:31.941Z,98.90
2022-08-07T00:51:00.932Z,99.00
2022-08-07T00:53:38.349Z,99.10
2022-08-07T00:56:14.104Z,99.20
2022-08-07T00:58:46.893Z,99.30
2022-08-07T01:01:15.296Z,99.40
2022-08-07T01:03:56.480Z,99.70
2022-08-07T01:06:30.418Z,99.80
2022-08-07T01:09:00.972Z,99.90
2022-08-07T01:12:26.519Z,99.90
2022-08-07T01:14:17.311Z,99.90
2022-08-07T01:16:48.490Z,99.90
2022-08-07T01:19:19.238Z,99.90
2022-08-07T01:21:53.369Z,99.90
2022-08-07T01:24:22.876Z,99.90
2022-08-07T01:26:52.756Z,99.90
2022-08-07T01:29:27.705Z,99.90
2022-08-07T01:31:55.778Z,99.90
2022-08-07T01:34:31.144Z,99.90
2022-08-07T01:36:58.784Z,99.90
2022-08-07T01:39:41.184Z,99.90
2022-08-07T01:42:38.653Z,99.90
2022-08-07T01:45:04.379Z,99.90
2022-08-07T01:48:20.176Z,99.90
2022-08-07T01:50:22.679Z,99.90
2022-08-07T01:52:58.491Z,99.90
2022-08-07T01:55:54.242Z,99.90
2022-08-07T01:58:27.538Z,99.90
2022-08-07T02:01:09.682Z,99.90
2022-08-07T02:04:11.527Z,99.90
2022-08-07T02:06:43.123Z,99.90
2022-08-07T02:09:51.785Z,99.90
2022-08-07T02:12:17.817Z,99.90
2022-08-07T02:14:53.009Z,99.90
2022-08-07T02:17:27.681Z,99.90
2022-08-07T02:20:05.551Z,99.90
2022-08-07T02:22:41.492Z,99.90
2022-08-07T02:25:17.295Z,99.90
2022-08-07T02:27:52.243Z,99.90
2022-08-07T02:30:20.385Z,99.90
2022-08-07T02:33:00.599Z,99.90
2022-08-07T02:36:28.563Z,99.90
2022-08-07T02:38:32.156Z,99.90
2022-08-07T02:41:01.208Z,99.90
2022-08-07T02:43:31.465Z,99.90
2022-08-07T02:46:01.847Z,99.90
2022-08-07T02:48:29.970Z,99.90
2022-08-07T02:50:59.228Z,99.90
2022-08-07T02:53:34.062Z,99.90
2022-08-07T02:56:17.506Z,99.90
2022-08-07T02:58:51.337Z,99.90
2022-08-07T03:01:36.337Z,99.90
2022-08-07T03:04:12.509Z,99.90
2022-08-07T03:06:42.036Z,99.90
2022-08-07T03:09:11.792Z,99.90
2022-08-07T03:11:51.789Z,99.90
2022-08-07T03:14:24.678Z,99.90
2022-08-07T03:16:52.389Z,99.90
2022-08-07T03:19:20.121Z,99.90
2022-08-07T03:21:50.948Z,99.90
2022-08-07T03:24:26.884Z,99.90
2022-08-07T03:26:58.248Z,99.90
2022-08-07T03:29:37.388Z,99.90
2022-08-07T03:32:06.760Z,99.90
2022-08-07T03:34:39.177Z,99.90
2022-08-07T03:37:12.399Z,99.90
2022-08-07T03:39:59.740Z,99.90
2022-08-07T03:42:27.588Z,99.90
2022-08-07T03:44:57.830Z,99.90
2022-08-07T03:47:26.000Z,99.90
2022-08-07T03:49:56.645Z,99.90
2022-08-07T03:52:26.996Z,99.90
2022-08-07T03:55:06.153Z,99.90
2022-08-07T03:58:33.395Z,99.90
2022-08-07T04:00:21.261Z,99.90
2022-08-07T04:02:58.922Z,99.90
2022-08-07T04:05:39.459Z,99.90
2022-08-07T04:08:12.868Z,99.90
2022-08-07T04:10:43.618Z,99.90
2022-08-07T04:13:22.084Z,99.90
2022-08-07T04:15:54.700Z,99.90
2022-08-07T04:18:56.709Z,99.90
2022-08-07T04:21:08.391Z,99.90
2022-08-07T04:23:43.600Z,99.90
2022-08-07T04:26:23.359Z,99.90
2022-08-07T04:28:55.253Z,99.90
2022-08-07T04:31:39.145Z,99.90
2022-08-07T04:34:16.852Z,99.90
2022-08-07T04:36:45.316Z,99.90
2022-08-07T04:39:12.268Z,99.90
2022-08-07T04:41:39.133Z,99.90
2022-08-07T04:44:11.890Z,99.90
2022-08-07T04:47:04.545Z,99.90
2022-08-07T04:49:40.741Z,99.90
2022-08-07T04:52:33.867Z,99.90
2022-08-07T04:55:15.623Z,99.90
2022-08-07T04:58:15.730Z,99.90
2022-08-07T05:00:57.433Z,99.90
2022-08-07T05:04:00.184Z,99.90
2022-08-07T05:06:22.831Z,99.90
2022-08-07T05:09:06.121Z,99.90
2022-08-07T05:11:57.658Z,99.90
2022-08-07T05:14:52.508Z,99.90
2022-08-07T05:17:52.900Z,99.90
2022-08-07T05:20:09.927Z,99.90
2022-08-07T05:22:38.193Z,99.90
2022-08-07T05:25:08.614Z,99.90
2022-08-07T05:28:03.411Z,99.90
2022-08-07T05:30:30.206Z,99.90
2022-08-07T05:33:02.548Z,99.90
2022-08-07T05:35:33.194Z,99.90
2022-08-07T05:38:08.789Z,99.90
2022-08-07T05:40:50.740Z,99.90
2022-08-07T05:43:19.299Z,99.90
2022-08-07T05:46:06.237Z,99.90
2022-08-07T05:48:34.038Z,99.90
2022-08-07T05:51:01.725Z,99.90
2022-08-07T05:54:12.940Z,99.90
2022-08-07T05:56:18.140Z,99.90
2022-08-07T05:58:49.310Z,99.90
2022-08-07T06:01:20.152Z,99.90
2022-08-07T06:03:56.328Z,99.90
2022-08-07T06:06:29.728Z,99.90
2022-08-07T06:08:59.497Z,99.90
2022-08-07T06:11:26.728Z,99.90
2022-08-07T06:14:12.652Z,99.90
2022-08-07T06:16:44.147Z,99.90
2022-08-07T06:19:18.248Z,99.90
2022-08-07T06:22:14.716Z,99.90
2022-08-07T06:24:56.973Z,99.90
2022-08-07T06:27:44.065Z,99.90
2022-08-07T06:30:24.089Z,99.90
2022-08-07T06:32:59.428Z,99.90
2022-08-07T06:35:38.887Z,99.90
2022-08-07T06:38:20.044Z,99.90
2022-08-07T06:40:50.056Z,99.90
2022-08-07T06:43:21.334Z,99.90
2022-08-07T06:45:49.410Z,99.90
2022-08-07T06:48:16.349Z,99.90
2022-08-07T06:50:52.996Z,99.90
2022-08-07T06:55:28.411Z,99.90
2022-08-07T06:56:15.582Z,99.90
2022-08-07T07:00:14.489Z,99.90
2022-08-07T07:01:33.322Z,99.90
2022-08-07T07:04:28.056Z,99.90
2022-08-07T07:07:01.262Z,99.90
2022-08-07T07:09:31.370Z,99.90
2022-08-07T07:12:16.688Z,99.90
2022-08-07T07:15:03.908Z,99.90
2022-08-07T07:17:50.649Z,99.90
2022-08-07T07:20:23.961Z,99.90
2022-08-07T07:24:10.062Z,99.90
2022-08-07T07:26:34.379Z,99.90
2022-08-07T07:29:23.517Z,99.90
2022-08-07T07:31:39.892Z,98.90
2022-08-07T07:34:13.104Z,98.90
2022-08-07T07:36:44.194Z,99.40
2022-08-07T07:39:16.105Z,99.70
2022-08-07T07:42:02.255Z,99.90
2022-08-07T07:44:34.936Z,99.40
2022-08-07T07:47:15.970Z,98.50
2022-08-07T07:50:32.841Z,98.10
2022-08-07T07:52:38.700Z,97.50
2022-08-07T07:55:07.721Z,96.10
2022-08-07T07:57:52.191Z,95.70
2022-08-07T08:00:31.437Z,96.60
2022-08-07T08:03:16.579Z,97.30
2022-08-07T08:05:58.624Z,94.80
2022-08-07T08:08:34.983Z,95.40
2022-08-07T08:11:08.497Z,94.80
2022-08-07T08:13:53.331Z,96.20
2022-08-07T08:16:50.294Z,93.80
2022-08-07T08:20:16.319Z,94.50
2022-08-07T08:22:32.618Z,93.10
2022-08-07T08:25:42.625Z,94.50
2022-08-07T08:28:09.568Z,92.60
2022-08-07T08:30:42.721Z,92.70
2022-08-07T08:33:21.975Z,91.80
2022-08-07T08:35:51.037Z,93.20
2022-08-07T08:38:20.622Z,93.70
2022-08-07T08:41:10.407Z,92.80
2022-08-07T08:43:59.677Z,92.80
2022-08-07T08:46:49.228Z,92.50
2022-08-07T08:49:33.514Z,93.00
2022-08-07T08:52:19.514Z,92.80
2022-08-07T08:54:59.180Z,92.20
2022-08-07T08:57:40.314Z,92.10
2022-08-07T09:00:08.506Z,92.40
2022-08-07T09:02:52.602Z,92.40
2022-08-07T09:05:32.312Z,91.60
2022-08-07T09:08:24.413Z,91.80
2022-08-07T09:11:14.104Z,92.30
2022-08-07T09:13:57.968Z,89.40
2022-08-07T09:16:30.662Z,90.40
2022-08-07T09:19:00.739Z,90.60
2022-08-07T09:22:09.553Z,91.20
2022-08-07T09:24:55.385Z,91.40
2022-08-07T09:27:59.627Z,91.10
2022-08-07T09:30:31.939Z,91.40
2022-08-07T09:33:05.239Z,92.00
2022-08-07T09:36:04.341Z,92.00
2022-08-07T09:38:49.930Z,91.40
2022-08-07T09:41:58.486Z,91.60
2022-08-07T09:47:27.512Z,90.80
2022-08-07T09:48:00.163Z,91.60
2022-08-07T09:50:39.988Z,91.00
2022-08-07T09:53:08.998Z,90.00
2022-08-07T09:56:03.510Z,88.30
2022-08-07T09:58:48.784Z,89.90
2022-08-07T10:01:51.354Z,90.60
2022-08-07T10:04:39.348Z,90.70
2022-08-07T10:07:31.762Z,90.90
2022-08-07T10:10:21.696Z,90.90
2022-08-07T10:13:15.758Z,90.40
2022-08-07T10:16:30.545Z,90.80
2022-08-07T10:18:58.264Z,91.40
2022-08-07T10:22:16.333Z,90.10
2022-08-07T10:24:49.517Z,90.50
2022-08-07T10:27:16.392Z,90.00
2022-08-07T10:29:53.273Z,90.40
2022-08-07T10:32:50.931Z,88.00
2022-08-07T10:35:53.472Z,87.80
2022-08-07T10:38:36.143Z,90.00
2022-08-07T10:41:11.915Z,88.70
2022-08-07T10:44:07.618Z,88.60
2022-08-07T10:46:50.103Z,89.30
2022-08-07T10:49:49.411Z,87.50
2022-08-07T10:52:51.432Z,87.90
2022-08-07T10:55:38.263Z,86.60
2022-08-07T10:58:13.615Z,89.10
2022-08-07T11:00:50.660Z,89.40
2022-08-07T11:03:37.693Z,86.50
2022-08-07T11:06:21.947Z,84.20
2022-08-07T11:08:52.584Z,87.30
2022-08-07T11:11:37.706Z,83.10
2022-08-07T11:14:46.080Z,86.20
2022-08-07T11:17:09.010Z,86.80
2022-08-07T11:19:40.130Z,86.60
2022-08-07T11:22:36.137Z,85.50
2022-08-07T11:25:16.796Z,84.90
2022-08-07T11:28:03.048Z,84.30
2022-08-07T11:30:41.711Z,84.10
2022-08-07T11:33:17.029Z,84.00
2022-08-07T11:35:59.116Z,82.40
2022-08-07T11:38:30.364Z,83.10
2022-08-07T11:41:03.262Z,82.70
2022-08-07T11:43:54.925Z,81.90
2022-08-07T11:46:43.358Z,79.40
2022-08-07T11:50:11.215Z,80.40
2022-08-07T11:52:16.317Z,83.20
2022-08-07T11:54:59.682Z,80.70
2022-08-07T11:58:00.820Z,80.10
2022-08-07T12:00:30.388Z,82.40
2022-08-07T12:02:58.518Z,82.10
2022-08-07T12:05:49.094Z,81.60
2022-08-07T12:08:40.297Z,83.30
2022-08-07T12:11:21.189Z,80.80
2022-08-07T12:13:49.179Z,79.10
2022-08-07T12:16:18.749Z,77.90
2022-08-07T12:19:21.827Z,78.00
2022-08-07T12:22:39.678Z,77.30
2022-08-07T12:26:05.778Z,76.00
2022-08-07T12:28:16.046Z,78.10
2022-08-07T12:30:53.512Z,74.50
2022-08-07T12:33:28.241Z,75.10
2022-08-07T12:35:58.966Z,76.30
2022-08-07T12:38:42.785Z,75.10
2022-08-07T12:41:14.619Z,76.00
2022-08-07T12:44:02.136Z,72.80
2022-08-07T12:46:32.747Z,75.80
2022-08-07T12:49:39.711Z,75.80
2022-08-07T12:52:18.201Z,74.20
2022-08-07T12:54:54.697Z,76.00
2022-08-07T12:57:39.050Z,72.30
2022-08-07T13:00:51.073Z,72.90
2022-08-07T13:04:00.673Z,71.40
2022-08-07T13:07:00.250Z,70.60
2022-08-07T13:10:21.395Z,70.10
2022-08-07T13:12:38.427Z,67.30
2022-08-07T13:15:29.600Z,66.40
2022-08-07T13:21:37.279Z,68.30
2022-08-07T13:24:29.372Z,68.60
2022-08-07T13:27:05.446Z,69.60
2022-08-07T13:29:42.464Z,70.90
2022-08-07T13:32:32.601Z,71.40
2022-08-07T13:35:24.212Z,70.20
2022-08-07T13:38:17.924Z,71.40
2022-08-07T13:41:02.958Z,70.10
2022-08-07T13:43:34.290Z,71.10
2022-08-07T13:46:21.768Z,68.70
2022-08-07T13:48:58.664Z,67.70
2022-08-07T13:52:05.454Z,68.50
2022-08-07T13:54:16.600Z,67.00
2022-08-07T13:56:55.875Z,63.90
2022-08-07T13:59:31.619Z,65.90
2022-08-07T14:02:07.852Z,65.20
2022-08-07T14:04:49.461Z,64.80
2022-08-07T14:07:18.790Z,62.50
2022-08-07T14:10:02.433Z,62.70
2022-08-07T14:15:34.795Z,65.10
2022-08-07T14:18:15.559Z,61.50
2022-08-07T14:20:54.686Z,61.90
2022-08-07T14:24:01.859Z,62.90
2022-08-07T14:26:32.557Z,63.50
2022-08-07T14:29:06.071Z,62.90
2022-08-07T14:31:42.805Z,59.80
2022-08-07T14:34:25.777Z,60.40
2022-08-07T14:36:56.639Z,57.40
2022-08-07T14:40:18.193Z,57.80
2022-08-07T14:42:18.659Z,56.70
2022-08-07T14:44:59.606Z,55.30
2022-08-07T14:47:33.970Z,54.10
2022-08-07T14:50:05.088Z,54.10
2022-08-07T14:52:34.053Z,54.50
2022-08-07T14:55:01.725Z,55.40
2022-08-07T14:57:57.851Z,55.30
2022-08-07T15:00:20.817Z,54.20
2022-08-07T15:03:15.701Z,53.00
2022-08-07T15:05:54.863Z,53.20
2022-08-07T15:11:52.854Z,53.50
2022-08-07T15:14:23.462Z,54.30
2022-08-07T15:17:13.463Z,51.30
2022-08-07T15:20:30.247Z,54.00
2022-08-07T15:22:51.634Z,54.20
2022-08-07T15:25:25.397Z,53.20
2022-08-07T15:28:36.399Z,53.90
2022-08-07T15:31:05.179Z,53.50
2022-08-07T15:33:36.169Z,53.60
2022-08-07T15:36:05.703Z,52.90
2022-08-07T15:38:58.675Z,53.50
2022-08-07T15:42:43.968Z,51.40
2022-08-07T15:44:13.138Z,52.50
2022-08-07T15:46:47.345Z,50.80
2022-08-07T15:49:25.380Z,53.10
2022-08-07T15:54:39.582Z,53.20
2022-08-07T15:57:39.603Z,54.80
2022-08-07T15:59:59.529Z,54.60
2022-08-07T16:02:45.779Z,54.20
2022-08-07T16:05:15.926Z,54.80
2022-08-07T16:08:32.012Z,55.30
2022-08-07T16:10:33.068Z,56.40
2022-08-07T16:13:57.806Z,56.60
2022-08-07T16:16:42.934Z,57.50
2022-08-07T16:19:14.666Z,57.40
2022-08-07T16:22:14.828Z,58.90
2022-08-07T16:25:02.624Z,59.20
2022-08-07T16:28:03.801Z,59.00
2022-08-07T16:30:34.290Z,60.40
2022-08-07T16:34:03.082Z,61.60
2022-08-07T16:36:19.795Z,61.70
2022-08-07T16:39:14.779Z,62.10
2022-08-07T16:42:03.276Z,62.70
2022-08-07T16:45:19.110Z,63.20
2022-08-07T16:47:56.959Z,63.30
2022-08-07T16:50:38.739Z,64.00
2022-08-07T16:54:02.798Z,65.50
2022-08-07T16:56:17.707Z,64.50
2022-08-07T16:59:14.825Z,66.00
2022-08-07T17:01:51.029Z,65.40
2022-08-07T17:04:57.799Z,65.40
2022-08-07T17:07:51.975Z,65.80
2022-08-07T17:10:32.499Z,66.00
2022-08-07T17:13:03.453Z,66.00
2022-08-07T17:15:44.170Z,66.40
2022-08-07T17:18:36.025Z,66.50
2022-08-07T17:21:19.189Z,67.50
2022-08-07T17:24:01.573Z,68.40
2022-08-07T17:26:36.824Z,68.50
2022-08-07T17:30:14.989Z,69.50
2022-08-07T17:32:30.147Z,69.80
2022-08-07T17:35:49.962Z,68.00
2022-08-07T17:38:05.567Z,68.40
2022-08-07T17:40:50.591Z,68.90
2022-08-07T17:43:22.594Z,69.30
2022-08-07T17:46:13.018Z,69.20
2022-08-07T17:48:45.079Z,70.00
2022-08-07T17:51:24.160Z,70.00
2022-08-07T17:54:39.649Z,69.70
2022-08-07T17:57:18.737Z,70.10
2022-08-07T17:59:52.477Z,70.40
2022-08-07T18:02:23.160Z,70.50
2022-08-07T18:04:56.297Z,71.20
2022-08-07T18:07:24.321Z,71.40
2022-08-07T18:10:31.970Z,71.70
2022-08-07T18:13:23.402Z,71.60
2022-08-07T18:16:04.908Z,72.50
2022-08-07T18:21:02.638Z,73.00
2022-08-07T18:21:53.473Z,72.30
2022-08-07T18:24:34.470Z,72.30
2022-08-07T18:27:18.115Z,72.30
2022-08-07T18:30:06.280Z,73.10
2022-08-07T18:32:54.837Z,72.80
2022-08-07T18:35:57.423Z,73.30
2022-08-07T18:38:55.561Z,73.60
2022-08-07T18:41:21.122Z,73.10
2022-08-07T18:43:57.610Z,74.20
2022-08-07T18:46:27.183Z,75.60
2022-08-07T18:50:30.515Z,75.80
2022-08-07T18:52:37.962Z,74.30
2022-08-07T18:55:43.192Z,74.70
2022-08-07T18:58:15.345Z,75.00
2022-08-07T19:00:59.499Z,75.30
2022-08-07T19:03:42.730Z,75.50
2022-08-07T19:06:16.409Z,75.00
2022-08-07T19:08:47.135Z,75.30
2022-08-07T19:11:35.887Z,76.50
2022-08-07T19:14:07.992Z,75.20
2022-08-07T19:17:06.094Z,76.40
2022-08-07T19:19:48.806Z,76.60
2022-08-07T19:22:30.698Z,75.80
2022-08-07T19:25:06.356Z,75.80
2022-08-07T19:28:58.189Z,76.30
2022-08-07T19:30:57.727Z,79.10
2022-08-07T19:33:15.281Z,76.90
2022-08-07T19:35:44.848Z,77.80
2022-08-07T19:38:17.122Z,79.60
2022-08-07T19:40:50.360Z,78.80
2022-08-07T19:43:43.783Z,80.90
2022-08-07T19:46:11.075Z,78.60
2022-08-07T19:48:42.914Z,79.80
2022-08-07T19:51:20.540Z,80.90
2022-08-07T19:54:34.717Z,81.10
2022-08-07T19:58:03.121Z,79.60
2022-08-07T19:59:42.553Z,83.00
2022-08-07T20:02:19.193Z,81.10
2022-08-07T20:04:49.329Z,80.10
2022-08-07T20:07:23.545Z,81.20
2022-08-07T20:10:37.661Z,84.60
2022-08-07T20:12:42.978Z,85.60
2022-08-07T20:15:19.014Z,82.50
2022-08-07T20:18:01.593Z,84.20
2022-08-07T20:20:33.882Z,83.60
2022-08-07T20:23:23.218Z,87.90
2022-08-07T20:25:54.055Z,88.10
2022-08-07T20:28:29.231Z,86.90
2022-08-07T20:30:58.184Z,84.60
2022-08-07T20:33:36.924Z,85.60
2022-08-07T20:36:06.764Z,86.00
2022-08-07T20:38:35.051Z,85.20
2022-08-07T20:41:03.782Z,85.40
2022-08-07T20:43:33.984Z,86.40
2022-08-07T20:46:25.666Z,86.90
2022-08-07T20:49:02.426Z,87.10
2022-08-07T20:51:40.273Z,87.30
2022-08-07T20:54:15.129Z,89.90
2022-08-07T20:56:58.165Z,91.00
2022-08-07T21:00:06.257Z,91.70
2022-08-07T21:02:39.199Z,91.80
2022-08-07T21:05:18.367Z,92.00
2022-08-07T21:08:07.927Z,91.60
2022-08-07T21:10:37.755Z,92.00
2022-08-07T21:13:07.471Z,92.50
2022-08-07T21:15:58.507Z,92.80
2022-08-07T21:18:29.475Z,92.80
2022-08-07T21:20:57.461Z,93.30
2022-08-07T21:23:50.580Z,91.80
2022-08-07T21:26:21.915Z,92.30
2022-08-07T21:29:00.534Z,92.40
2022-08-07T21:32:42.487Z,92.50
2022-08-07T21:34:31.631Z,94.20
2022-08-07T21:37:21.678Z,94.40
2022-08-07T21:40:20.619Z,93.90
2022-08-07T21:42:56.492Z,94.90
2022-08-07T21:46:09.225Z,95.00
2022-08-07T21:48:42.514Z,95.50
2022-08-07T21:51:20.286Z,95.00
2022-08-07T21:53:54.176Z,95.10
2022-08-07T21:56:39.694Z,95.80
2022-08-07T21:59:22.026Z,96.00
2022-08-07T22:02:11.023Z,96.40
2022-08-07T22:04:53.621Z,96.60
2022-08-07T22:07:23.032Z,97.00
2022-08-07T22:10:01.390Z,97.10
2022-08-07T22:12:37.024Z,96.80
2022-08-07T22:16:43.878Z,97.00
2022-08-07T22:18:04.151Z,96.90
2022-08-07T22:20:33.830Z,97.40
2022-08-07T22:23:23.960Z,97.50
2022-08-07T22:26:13.229Z,97.60
2022-08-07T22:28:48.252Z,97.90
2022-08-07T22:31:59.292Z,97.60
2022-08-07T22:34:31.670Z,97.80
2022-08-07T22:37:22.666Z,98.70
2022-08-07T22:39:58.961Z,98.80
2022-08-07T22:42:30.347Z,99.00
2022-08-07T22:45:01.961Z,99.30
2022-08-07T22:47:58.961Z,99.50
2022-08-07T22:50:29.017Z,99.50
2022-08-07T22:53:03.007Z,99.50
2022-08-07T22:55:49.966Z,99.80
2022-08-07T22:58:37.578Z,99.90
2022-08-07T23:01:24.803Z,99.90
2022-08-07T23:04:09.935Z,99.90
2022-08-07T23:06:52.080Z,99.90
2022-08-07T23:10:04.288Z,99.90
2022-08-07T23:12:11.432Z,99.90
2022-08-07T23:16:04.936Z,99.90
2022-08-07T23:18:15.546Z,99.90
2022-08-07T23:21:03.298Z,99.90
2022-08-07T23:24:05.207Z,99.90
2022-08-07T23:26:49.992Z,99.90
2022-08-07T23:29:43.848Z,99.90
2022-08-07T23:34:23.341Z,99.90
2022-08-07T23:35:24.108Z,99.90
2022-08-07T23:38:11.600Z,99.90
2022-08-07T23:41:04.718Z,99.90
2022-08-07T23:43:47.049Z,99.90
2022-08-07T23:46:27.438Z,99.90
2022-08-07T23:49:00.384Z,99.90
2022-08-07T23:53:01.714Z,99.90
2022-08-07T23:54:36.268Z,99.90
2022-08-07T23:57:19.745Z,99.90
